Time;durP1;ratioP1;P1;durP2;ratioP2;P2;SDS_P1;SDS_P2;PMS_P1;PMS_P2;Temp;Humidity;BMP_temperature;BMP_pressure;BME280_temperature;BME280_humidity;BME280_pressure;Samples;Min_cycle;Max_cycle;Signal;HPM_P1;HPM_P2
2023/08/21 00:00:07;;;;;;;6.95;3.28;;;;;;;17.22;89.65;102201.25;4939013;28;20035;-78
2023/08/21 00:02:32;;;;;;;6.32;2.80;;;;;;;17.19;89.98;102198.00;4926142;29;20039;-78
2023/08/21 00:04:58;;;;;;;6.38;3.42;;;;;;;17.17;90.27;102199.38;4930773;29;20489;-78
2023/08/21 00:07:24;;;;;;;9.48;3.55;;;;;;;17.14;90.40;102191.81;4942174;29;20888;-78
2023/08/21 00:09:50;;;;;;;9.35;3.88;;;;;;;17.11;90.66;102189.66;4927480;28;20063;-79
2023/08/21 00:12:15;;;;;;;9.15;3.88;;;;;;;17.09;90.78;102187.22;4946654;28;20121;-78
2023/08/21 00:14:42;;;;;;;8.65;4.25;;;;;;;17.06;90.77;102190.47;4962941;28;20039;-79
2023/08/21 00:17:08;;;;;;;8.48;3.92;;;;;;;17.06;90.65;102187.78;4930957;29;20036;-77
2023/08/21 00:19:34;;;;;;;6.95;3.45;;;;;;;17.05;89.72;102191.56;4931011;29;20037;-78
2023/08/21 00:22:00;;;;;;;11.35;3.83;;;;;;;17.07;89.66;102192.13;4940794;28;20035;-78
2023/08/21 00:24:26;;;;;;;6.95;3.60;;;;;;;17.08;89.93;102190.22;4944507;28;20067;-78
2023/08/21 00:26:52;;;;;;;5.32;2.92;;;;;;;17.06;89.90;102187.78;4930917;29;20039;-79
2023/08/21 00:29:18;;;;;;;7.70;4.18;;;;;;;17.03;90.20;102193.75;4924938;29;20513;-79
2023/08/21 00:31:44;;;;;;;6.90;3.30;;;;;;;17.02;90.29;102192.13;4934537;29;20031;-79
2023/08/21 00:34:09;;;;;;;5.28;3.53;;;;;;;17.01;90.55;102192.41;4941874;28;20134;-78
2023/08/21 00:36:35;;;;;;;8.40;3.50;;;;;;;16.98;90.54;102192.97;4943277;29;20035;-78
2023/08/21 00:39:00;;;;;;;7.53;4.20;;;;;;;16.92;90.90;102187.56;4903026;23;20441;-72
2023/08/21 00:41:26;;;;;;;7.35;3.47;;;;;;;16.92;90.69;102194.88;4903443;29;20075;-74
2023/08/21 00:43:53;;;;;;;7.95;4.03;;;;;;;16.90;90.77;102205.19;4903538;29;20131;-72
2023/08/21 00:46:20;;;;;;;8.23;4.28;;;;;;;16.88;91.32;102188.41;4925016;29;20043;-71
2023/08/21 00:48:45;;;;;;;8.48;4.50;;;;;;;16.85;91.58;102191.66;4908711;29;20039;-71
2023/08/21 00:51:15;;;;;;;7.03;3.35;;;;;;;16.82;91.62;102187.63;4943638;29;20035;-73
2023/08/21 00:53:41;;;;;;;7.20;3.78;;;;;;;16.80;91.46;102195.22;4921065;29;20039;-73
2023/08/21 00:56:08;;;;;;;8.73;3.85;;;;;;;16.76;91.31;102196.03;4927639;29;20053;-74
2023/08/21 00:58:34;;;;;;;8.00;3.67;;;;;;;16.73;91.65;102194.69;4921741;29;20087;-73
2023/08/21 01:00:59;;;;;;;7.40;3.78;;;;;;;16.73;91.55;102188.44;4926918;29;20771;-75
2023/08/21 01:03:25;;;;;;;8.52;4.35;;;;;;;16.72;91.47;102198.47;4911589;29;20051;-71
2023/08/21 01:05:51;;;;;;;8.82;3.92;;;;;;;16.72;91.12;102208.47;4907997;29;20070;-72
2023/08/21 01:08:30;;;;;;;10.27;3.95;;;;;;;16.70;91.24;102206.06;4892947;29;20035;-71
2023/08/21 01:11:14;;;;;;;12.35;4.70;;;;;;;16.67;91.32;102200.38;4898266;29;20047;-72
2023/08/21 01:13:39;;;;;;;;;;;;;;;16.64;91.60;102196.28;4900994;29;20047;-75
2023/08/21 01:16:08;;;;;;;8.55;4.10;;;;;;;16.60;91.60;102204.16;4891941;29;19921;-73
2023/08/21 01:18:35;;;;;;;8.27;4.63;;;;;;;16.58;91.87;102192.78;4898670;28;20043;-72
2023/08/21 01:21:04;;;;;;;8.85;4.20;;;;;;;16.58;91.56;102197.38;4892654;29;20050;-72
2023/08/21 01:23:37;;;;;;;10.35;4.00;;;;;;;16.57;91.74;102196.59;4920954;29;20030;-72
2023/08/21 01:26:04;;;;;;;12.20;4.05;;;;;;;16.56;91.64;102208.50;4898517;29;20048;-73
2023/08/21 01:28:31;;;;;;;10.35;4.38;;;;;;;16.56;91.84;102204.97;4920231;29;20032;-71
2023/08/21 01:31:26;;;;;;;10.18;4.95;;;;;;;16.55;92.09;102198.75;4926931;29;20034;-71
2023/08/21 01:33:57;;;;;;;8.68;3.70;;;;;;;16.54;92.12;102191.72;4902770;29;20553;-72
2023/08/21 01:36:24;;;;;;;7.32;4.03;;;;;;;16.53;91.87;102194.72;4922272;29;20074;-73
2023/08/21 01:38:52;;;;;;;8.50;4.70;;;;;;;16.50;92.00;102204.16;4906762;29;20090;-73
2023/08/21 01:41:18;;;;;;;6.40;4.50;;;;;;;16.48;92.43;102203.66;4887798;29;20043;-73
2023/08/21 01:43:43;;;;;;;6.45;4.53;;;;;;;16.44;92.49;102207.97;4908176;29;20043;-71
2023/08/21 01:46:09;;;;;;;8.75;3.95;;;;;;;16.42;91.99;102202.03;4914014;29;20161;-75
2023/08/21 01:48:35;;;;;;;13.02;4.53;;;;;;;16.40;91.83;102212.31;4896487;28;20516;-72
2023/08/21 01:51:02;;;;;;;6.30;4.07;;;;;;;16.41;92.20;102202.31;4913341;29;20205;-72
2023/08/21 01:53:28;;;;;;;9.68;4.35;;;;;;;16.39;92.21;102202.56;4908838;29;20031;-72
2023/08/21 01:55:54;;;;;;;11.00;5.10;;;;;;;16.35;92.39;102201.50;4920863;29;20527;-73
2023/08/21 01:58:20;;;;;;;9.15;4.00;;;;;;;16.33;92.23;102195.56;4907633;29;20086;-73
2023/08/21 02:00:47;;;;;;;10.55;4.63;;;;;;;16.32;92.28;102199.31;4892029;29;20032;-72
2023/08/21 02:03:13;;;;;;;6.47;3.45;;;;;;;16.32;92.27;102199.31;4933089;29;20039;-73
2023/08/21 02:05:40;;;;;;;7.70;3.97;;;;;;;16.28;92.14;102198.28;4924270;29;20146;-72
2023/08/21 02:08:07;;;;;;;12.02;4.55;;;;;;;16.27;92.09;102193.94;4899808;29;20043;-73
2023/08/21 02:10:34;;;;;;;10.15;4.55;;;;;;;16.24;92.01;102191.78;4920682;29;20095;-74
2023/08/21 02:13:00;;;;;;;5.32;4.18;;;;;;;16.22;91.99;102189.34;4927992;29;20043;-73
2023/08/21 02:15:26;;;;;;;10.35;4.03;;;;;;;16.21;92.10;102187.75;4928844;29;20035;-71
2023/08/21 02:17:52;;;;;;;9.35;5.10;;;;;;;16.22;92.56;102199.34;4912550;29;20046;-72
2023/08/21 02:20:17;;;;;;;8.93;3.83;;;;;;;16.19;92.66;102194.47;4912610;29;20041;-73
2023/08/21 02:22:44;;;;;;;8.10;4.40;;;;;;;16.18;92.53;102195.56;4930919;29;20061;-72
2023/08/21 02:25:10;;;;;;;11.25;4.30;;;;;;;16.16;92.85;102197.75;4895523;29;20556;-72
2023/08/21 02:27:36;;;;;;;6.32;3.78;;;;;;;16.14;92.38;102205.31;4907910;29;20588;-73
2023/08/21 02:30:02;;;;;;;;;;;;;;;16.11;92.51;102206.66;4912931;29;20047;-71
2023/08/21 02:32:29;;;;;;;8.52;3.78;;;;;;;16.06;92.68;102196.66;4914599;29;19974;-72
2023/08/21 02:34:54;;;;;;;7.65;4.40;;;;;;;16.06;92.97;102202.06;4916132;29;20047;-73
2023/08/21 02:37:20;;;;;;;12.43;5.10;;;;;;;16.05;93.00;102205.88;4907769;29;20042;-72
2023/08/21 02:39:49;;;;;;;10.00;5.07;;;;;;;16.04;93.05;102204.22;4904110;29;20043;-73
2023/08/21 02:42:14;;;;;;;8.52;4.18;;;;;;;16.04;93.14;102198.00;4911394;29;20043;-72
2023/08/21 02:44:40;;;;;;;;;;;;;;;16.04;92.70;102200.72;4913116;29;20028;-72
2023/08/21 02:47:06;;;;;;;5.68;3.30;;;;;;;16.02;92.86;102209.09;4916627;29;20391;-73
2023/08/21 02:49:32;;;;;;;7.82;3.85;;;;;;;16.03;93.01;102201.78;4905580;29;20509;-73
2023/08/21 02:51:58;;;;;;;11.38;5.38;;;;;;;16.00;92.84;102207.75;4905499;29;20175;-72
2023/08/21 02:54:25;;;;;;;7.95;4.60;;;;;;;16.00;93.09;102216.66;4918132;29;20066;-72
2023/08/21 02:56:50;;;;;;;9.32;5.15;;;;;;;15.99;93.22;102212.34;4927185;29;20138;-73
2023/08/21 02:59:17;;;;;;;9.52;4.60;;;;;;;15.99;93.14;102212.34;4900194;29;20122;-71
2023/08/21 03:01:42;;;;;;;7.75;4.28;;;;;;;16.00;92.92;102218.56;4906542;29;20126;-72
2023/08/21 03:04:08;;;;;;;8.13;3.92;;;;;;;15.98;92.86;102218.81;4922147;29;20867;-71
2023/08/21 03:06:36;;;;;;;7.65;4.40;;;;;;;15.95;92.92;102211.25;4919265;29;20039;-72
2023/08/21 03:09:01;;;;;;;11.63;5.90;;;;;;;15.93;92.94;102218.81;4919462;29;20465;-71
2023/08/21 03:11:28;;;;;;;12.23;4.63;;;;;;;15.92;92.92;102209.09;4925505;29;20567;-72
2023/08/21 03:13:53;;;;;;;8.95;4.53;;;;;;;15.89;93.21;102215.03;4903779;29;20051;-72
2023/08/21 03:16:20;;;;;;;8.23;4.20;;;;;;;15.90;92.72;102213.94;4904233;29;20056;-71
2023/08/21 03:18:55;;;;;;;8.57;4.53;;;;;;;15.88;93.03;102216.13;4909416;29;20673;-72
2023/08/21 03:21:23;;;;;;;8.90;4.72;;;;;;;15.84;93.20;102215.03;4928446;29;20035;-72
2023/08/21 03:23:57;;;;;;;12.73;4.88;;;;;;;15.83;93.01;102210.69;4900665;28;20097;-73
2023/08/21 03:26:25;;;;;;;10.20;4.63;;;;;;;15.82;93.12;102222.59;4911339;29;20792;-72
2023/08/21 03:28:51;;;;;;;8.45;4.65;;;;;;;15.77;93.05;102212.59;4926926;29;20841;-72
2023/08/21 03:31:17;;;;;;;8.32;4.15;;;;;;;15.78;93.08;102216.09;4907995;29;20046;-71
2023/08/21 03:33:43;;;;;;;10.18;4.40;;;;;;;15.73;93.25;102216.09;4894705;29;20027;-72
2023/08/21 03:36:09;;;;;;;8.88;4.45;;;;;;;15.73;92.98;102211.50;4911396;29;20039;-72
2023/08/21 03:38:35;;;;;;;7.82;4.05;;;;;;;15.73;92.56;102214.22;4926576;28;20050;-71
2023/08/21 03:41:01;;;;;;;6.88;4.35;;;;;;;15.73;92.66;102216.91;4889769;29;20047;-72
2023/08/21 03:43:28;;;;;;;11.68;4.40;;;;;;;15.72;93.11;102206.38;4907324;29;20031;-72
2023/08/21 03:45:53;;;;;;;9.10;5.30;;;;;;;15.70;92.79;102208.53;4928016;29;20559;-73
2023/08/21 03:48:19;;;;;;;11.65;4.30;;;;;;;15.69;92.86;102213.13;4908528;29;20516;-72
2023/08/21 03:50:45;;;;;;;8.57;4.60;;;;;;;15.64;93.01;102212.28;4906138;29;20565;-73
2023/08/21 03:53:11;;;;;;;10.88;5.05;;;;;;;15.61;93.07;102215.50;4925618;29;20040;-74
2023/08/21 03:55:36;;;;;;;9.18;4.22;;;;;;;15.57;92.70;102217.91;4914951;29;20124;-72
2023/08/21 03:58:02;;;;;;;;;;;;;;;15.55;93.10;102212.78;4940098;29;20043;-73
2023/08/21 04:00:28;;;;;;;7.72;3.92;;;;;;;15.53;93.02;102209.56;4910697;29;19918;-73
2023/08/21 04:02:53;;;;;;;10.52;4.80;;;;;;;15.51;93.24;102203.63;4928149;29;20042;-73
2023/08/21 04:05:19;;;;;;;8.75;4.45;;;;;;;15.49;93.13;102219.25;4924800;29;20709;-72
2023/08/21 04:07:46;;;;;;;9.95;4.60;;;;;;;15.47;93.68;102218.72;4941320;29;20039;-73
2023/08/21 04:10:12;;;;;;;7.75;4.30;;;;;;;15.48;93.71;102223.03;4908107;29;20058;-72
2023/08/21 04:12:37;;;;;;;;;;;;;;;15.45;93.77;102228.97;4908320;29;20087;-72
2023/08/21 04:15:06;;;;;;;10.13;3.78;;;;;;;15.43;93.70;102217.63;4907898;29;19926;-71
2023/08/21 04:17:31;;;;;;;6.70;4.03;;;;;;;15.40;93.76;102210.06;4905690;29;20051;-73
2023/08/21 04:19:58;;;;;;;11.15;4.80;;;;;;;15.43;93.69;102216.81;4889173;29;20067;-71
2023/08/21 04:22:24;;;;;;;8.07;4.70;;;;;;;15.45;93.56;102212.78;4909158;29;20130;-72
2023/08/21 04:24:50;;;;;;;;;;;;;;;15.46;93.86;102224.41;4944819;29;20046;-72
2023/08/21 04:27:16;;;;;;;10.98;5.05;;;;;;;15.45;93.49;102228.19;4921018;29;19942;-71
2023/08/21 04:29:42;;;;;;;6.70;4.00;;;;;;;15.44;94.19;102221.94;4908653;29;20031;-73
2023/08/21 04:32:08;;;;;;;;;;;;;;;15.45;94.42;102225.47;4922950;29;20043;-71
2023/08/21 04:34:35;;;;;;;12.57;4.60;;;;;;;15.42;94.52;102232.19;4916795;29;19915;-71
2023/08/21 04:37:00;;;;;;;8.18;4.95;;;;;;;15.44;94.39;102231.94;4937449;28;20075;-72
2023/08/21 04:39:26;;;;;;;13.60;5.35;;;;;;;15.44;94.40;102230.03;4923505;29;20071;-71
2023/08/21 04:41:54;;;;;;;8.57;3.83;;;;;;;15.47;94.73;102232.22;4898462;29;20047;-73
2023/08/21 04:44:20;;;;;;;12.35;4.70;;;;;;;15.49;94.87;102234.66;4897491;29;20688;-72
2023/08/21 04:46:48;;;;;;;8.35;4.57;;;;;;;15.51;95.07;102233.31;4892632;29;20035;-72
2023/08/21 04:49:14;;;;;;;12.65;5.28;;;;;;;15.53;94.88;102236.56;4912773;29;20094;-71
2023/08/21 04:51:40;;;;;;;;;;;;;;;15.60;95.21;102238.19;4897659;29;20054;-72
2023/08/21 04:54:06;;;;;;;7.45;4.50;;;;;;;15.58;95.20;102241.16;4895716;29;19977;-71
2023/08/21 04:56:31;;;;;;;;;;;;;;;15.63;95.56;102243.88;4924409;29;20054;-72
2023/08/21 04:58:57;;;;;;;11.63;4.85;;;;;;;15.62;95.96;102233.38;4909054;29;19919;-72
2023/08/21 05:01:26;;;;;;;8.05;4.88;;;;;;;15.66;95.80;102229.06;4910493;29;20119;-72
2023/08/21 05:03:52;;;;;;;7.28;4.53;;;;;;;15.71;95.47;102237.16;4897464;29;20044;-71
2023/08/21 05:06:18;;;;;;;12.20;6.35;;;;;;;15.74;96.06;102232.03;4909839;29;20043;-73
2023/08/21 05:08:44;;;;;;;9.75;5.90;;;;;;;15.78;96.38;102230.44;4926486;29;20035;-72
2023/08/21 05:11:10;;;;;;;13.50;6.65;;;;;;;15.80;96.57;102240.97;4903432;29;20043;-72
2023/08/21 05:13:38;;;;;;;9.43;5.75;;;;;;;15.82;96.69;102233.41;4909334;29;20405;-74
2023/08/21 05:16:08;;;;;;;8.75;5.78;;;;;;;15.89;97.13;102233.13;4912747;29;20595;-72
2023/08/21 05:18:36;;;;;;;10.00;5.03;;;;;;;15.92;96.81;102240.69;4912756;29;20501;-73
2023/08/21 05:21:02;;;;;;;10.02;6.22;;;;;;;15.96;96.88;102245.28;4912879;29;20070;-74
2023/08/21 05:23:28;;;;;;;7.72;5.45;;;;;;;15.99;97.06;102247.47;4919665;29;20031;-73
2023/08/21 05:25:59;;;;;;;11.05;5.90;;;;;;;16.04;97.18;102242.06;4907962;29;20770;-71
2023/08/21 05:28:25;;;;;;;;;;;;;;;16.11;97.58;102248.00;4919512;29;20034;-72
2023/08/21 05:30:51;;;;;;;11.57;5.03;;;;;;;16.12;97.59;102243.41;4912538;29;19918;-73
2023/08/21 05:33:19;;;;;;;12.80;5.93;;;;;;;16.17;97.70;102240.69;4912869;29;20086;-73
2023/08/21 05:35:47;;;;;;;13.02;5.70;;;;;;;16.22;97.58;102242.59;4912936;29;20035;-73
2023/08/21 05:38:14;;;;;;;15.50;6.38;;;;;;;16.29;97.69;102243.13;4907727;29;20063;-72
2023/08/21 05:40:42;;;;;;;;;;;;;;;16.42;98.01;102247.19;4924050;29;20134;-73
2023/08/21 05:43:08;;;;;;;14.48;6.65;;;;;;;16.45;98.41;102242.03;4911947;29;20005;-71
2023/08/21 05:45:36;;;;;;;13.45;6.72;;;;;;;16.54;98.10;102248.53;4910775;29;20039;-71
2023/08/21 05:48:01;;;;;;;;;;;;;;;16.69;98.48;102253.09;4925844;29;20039;-73
2023/08/21 05:50:28;;;;;;;13.38;7.20;;;;;;;16.75;98.03;102248.53;4923028;29;19915;-73
2023/08/21 05:52:54;;;;;;;13.73;7.05;;;;;;;16.83;97.73;102256.06;4908559;29;20039;-73
2023/08/21 05:55:21;;;;;;;13.98;6.47;;;;;;;16.91;97.43;102252.78;4928690;29;20864;-71
2023/08/21 05:57:46;;;;;;;15.40;6.25;;;;;;;17.01;97.53;102254.66;4924148;29;20039;-70
2023/08/21 06:00:14;;;;;;;18.88;7.80;;;;;;;17.09;97.25;102249.50;4910269;29;20053;-72
2023/08/21 06:02:42;;;;;;;16.58;7.68;;;;;;;17.18;96.84;102261.34;4944662;29;20262;-71
2023/08/21 06:05:13;;;;;;;;;;;;;;;17.24;96.51;102267.56;4891710;29;20039;-72
2023/08/21 06:07:43;;;;;;;15.77;5.65;;;;;;;17.25;96.18;102265.66;4908090;29;20691;-74
2023/08/21 06:10:12;;;;;;;14.85;6.70;;;;;;;17.31;96.70;102261.84;4889552;29;20040;-71
2023/08/21 06:12:40;;;;;;;10.80;5.97;;;;;;;17.37;96.22;102264.25;4914549;29;20032;-71
2023/08/21 06:15:08;;;;;;;13.35;6.72;;;;;;;17.45;96.53;102273.69;4942290;29;20039;-72
2023/08/21 06:17:34;;;;;;;11.63;5.53;;;;;;;17.48;96.03;102262.31;4923888;29;20036;-72
2023/08/21 06:20:00;;;;;;;12.60;5.25;;;;;;;17.58;95.21;102264.94;4902956;29;20537;-71
2023/08/21 06:22:26;;;;;;;10.70;5.00;;;;;;;17.65;95.30;102265.44;4942089;29;20141;-72
2023/08/21 06:24:52;;;;;;;15.38;5.32;;;;;;;17.72;94.54;102267.88;4923612;29;20064;-74
2023/08/21 06:27:19;;;;;;;15.55;4.75;;;;;;;17.81;94.03;102268.09;4918011;29;20035;-72
2023/08/21 06:29:44;;;;;;;8.35;4.35;;;;;;;17.90;94.39;102264.53;4927319;29;20039;-73
2023/08/21 06:32:10;;;;;;;9.85;4.63;;;;;;;17.99;93.73;102270.94;4926498;29;20533;-72
2023/08/21 06:34:39;;;;;;;12.45;4.75;;;;;;;18.07;94.48;102277.66;4929196;29;20054;-74
2023/08/21 06:37:12;;;;;;;12.93;5.15;;;;;;;18.14;93.88;102274.63;4905591;29;20043;-72
2023/08/21 06:39:38;;;;;;;14.10;3.92;;;;;;;18.23;92.34;102276.47;4878251;29;20196;-72
2023/08/21 06:42:04;;;;;;;11.82;4.75;;;;;;;18.38;92.04;102282.84;4903702;29;20559;-73
2023/08/21 06:44:38;;;;;;;12.50;3.65;;;;;;;18.41;91.91;102274.94;4933035;29;20043;-71
2023/08/21 06:47:04;;;;;;;11.02;3.75;;;;;;;18.46;90.07;102284.94;4886068;29;20039;-73
2023/08/21 06:49:29;;;;;;;11.25;3.60;;;;;;;18.55;89.74;102284.03;4923650;29;21032;-75
2023/08/21 06:51:55;;;;;;;11.30;3.08;;;;;;;18.68;88.62;102279.88;4924941;29;20520;-73
2023/08/21 06:54:20;;;;;;;10.98;3.38;;;;;;;18.75;87.42;102274.09;4932139;29;20417;-73
2023/08/21 06:56:46;;;;;;;10.50;2.95;;;;;;;18.83;88.52;102278.91;4908460;28;20042;-72
2023/08/21 06:59:12;;;;;;;14.25;4.30;;;;;;;18.89;88.48;102274.22;4896591;29;20477;-75
2023/08/21 07:01:38;;;;;;;8.57;2.40;;;;;;;18.92;86.62;102270.94;4908282;29;20716;-72
2023/08/21 07:04:04;;;;;;;7.68;2.72;;;;;;;19.02;88.13;102268.91;4912663;29;20031;-71
2023/08/21 07:06:30;;;;;;;9.18;2.85;;;;;;;19.09;88.85;102277.50;4926503;29;20470;-74
2023/08/21 07:08:56;;;;;;;9.30;2.85;;;;;;;19.13;88.02;102277.75;4927333;29;20126;-70
2023/08/21 07:11:21;;;;;;;8.93;2.55;;;;;;;19.23;86.89;102283.03;4927521;29;21153;-73
2023/08/21 07:13:48;;;;;;;7.35;2.25;;;;;;;19.26;85.63;102279.75;4943791;29;20037;-71
2023/08/21 07:16:13;;;;;;;11.40;2.75;;;;;;;19.35;85.79;102275.28;4903946;29;20891;-73
2023/08/21 07:18:39;;;;;;;7.57;1.88;;;;;;;19.46;83.81;102275.19;4923498;29;20446;-71
2023/08/21 07:21:05;;;;;;;9.23;2.80;;;;;;;19.50;80.80;102285.16;4903988;29;20405;-71
2023/08/21 07:23:32;;;;;;;5.40;1.80;;;;;;;19.57;82.16;102272.03;4924329;29;20397;-73
2023/08/21 07:25:58;;;;;;;7.53;2.00;;;;;;;19.60;81.28;102276.91;4945679;29;20086;-73
2023/08/21 07:28:24;;;;;;;8.07;2.42;;;;;;;19.67;80.99;102278.44;4921422;29;20028;-72
2023/08/21 07:30:57;;;;;;;6.85;2.03;;;;;;;19.72;80.92;102279.19;4910036;29;20572;-74
2023/08/21 07:33:24;;;;;;;5.45;1.73;;;;;;;19.81;77.03;102282.03;4910187;29;20035;-74
2023/08/21 07:36:04;;;;;;;7.80;1.85;;;;;;;19.98;78.56;102281.50;4913631;29;20039;-71
2023/08/21 07:38:30;;;;;;;7.40;2.15;;;;;;;19.99;80.65;102281.22;4909558;28;20696;-72
2023/08/21 07:41:07;;;;;;;6.93;2.05;;;;;;;20.09;79.79;102286.50;4895750;29;20046;-72
2023/08/21 07:43:33;;;;;;;5.97;1.58;;;;;;;20.11;77.53;102280.75;4927551;29;20161;-71
2023/08/21 07:46:03;;;;;;;5.93;1.67;;;;;;;20.16;77.61;102283.41;4911259;29;20035;-73
2023/08/21 07:48:29;;;;;;;5.57;1.60;;;;;;;20.24;80.50;102290.88;4919344;29;20032;-74
2023/08/21 07:50:55;;;;;;;3.78;1.52;;;;;;;20.27;78.32;102289.50;4922732;29;20062;-71
2023/08/21 07:53:21;;;;;;;7.53;2.55;;;;;;;20.35;77.31;102281.44;4900553;28;20150;-71
2023/08/21 07:55:46;;;;;;;5.88;1.70;;;;;;;20.37;76.55;102284.66;4896542;29;20094;-71
2023/08/21 07:58:12;;;;;;;9.23;2.05;;;;;;;20.39;72.78;102285.19;4899828;29;20051;-71
2023/08/21 08:00:38;;;;;;;4.50;1.30;;;;;;;20.52;75.30;102282.81;4904943;29;20131;-71
2023/08/21 08:03:08;;;;;;;5.55;1.58;;;;;;;20.58;75.96;102281.63;4908499;29;20046;-72
2023/08/21 08:05:35;;;;;;;4.30;1.67;;;;;;;20.68;76.90;102276.81;4911555;29;20039;-72
2023/08/21 08:08:00;;;;;;;5.32;1.60;;;;;;;20.73;76.76;102284.06;4892151;29;20099;-72
2023/08/21 08:10:26;;;;;;;6.05;1.73;;;;;;;20.73;72.57;102278.63;4902551;29;20040;-74
2023/08/21 08:12:51;;;;;;;7.68;1.58;;;;;;;20.79;71.73;102280.13;4908858;29;20059;-72
2023/08/21 08:15:18;;;;;;;9.85;2.20;;;;;;;20.84;73.40;102285.47;4913967;29;20094;-72
2023/08/21 08:17:45;;;;;;;8.20;1.75;;;;;;;20.93;73.11;102286.41;4925076;29;20039;-73
2023/08/21 08:20:12;;;;;;;4.97;1.80;;;;;;;20.93;73.88;102283.69;4896300;29;20048;-74
2023/08/21 08:22:39;;;;;;;5.45;1.70;;;;;;;20.97;75.07;102287.41;4909324;29;20031;-72
2023/08/21 08:25:05;;;;;;;4.88;1.90;;;;;;;21.04;73.61;102288.91;4938237;29;20046;-71
2023/08/21 08:27:32;;;;;;;7.80;1.95;;;;;;;21.12;73.57;102288.22;4937143;29;20038;-75
2023/08/21 08:29:58;;;;;;;6.15;1.90;;;;;;;21.17;72.30;102288.09;4899281;29;20043;-71
2023/08/21 08:32:25;;;;;;;5.68;1.90;;;;;;;21.27;71.34;102285.19;4927705;29;20035;-72
2023/08/21 08:34:52;;;;;;;6.00;2.00;;;;;;;21.36;72.15;102293.47;4927992;29;20274;-72
2023/08/21 08:37:18;;;;;;;10.00;3.60;;;;;;;21.34;70.36;102291.06;4891882;29;20058;-73
2023/08/21 08:39:46;;;;;;;9.32;2.90;;;;;;;21.37;71.57;102287.72;4913189;29;20047;-74
2023/08/21 08:42:13;;;;;;;6.22;2.42;;;;;;;21.44;69.88;102296.28;4928377;29;20075;-73
2023/08/21 08:44:41;;;;;;;4.35;1.63;;;;;;;21.45;68.77;102287.00;4930390;29;20126;-75
2023/08/21 08:47:11;;;;;;;7.97;2.20;;;;;;;21.52;67.62;102292.84;4915493;29;20143;-74
2023/08/21 08:49:38;;;;;;;7.07;1.90;;;;;;;21.60;72.35;102295.94;4927379;29;20035;-74
2023/08/21 08:52:04;;;;;;;7.50;2.00;;;;;;;21.60;69.75;102293.22;4938384;29;20089;-73
2023/08/21 08:54:30;;;;;;;7.22;1.75;;;;;;;21.64;68.54;102296.97;4912900;29;20047;-72
2023/08/21 08:56:57;;;;;;;4.43;1.40;;;;;;;21.69;72.23;102297.66;4898079;29;20043;-71
2023/08/21 08:59:22;;;;;;;6.78;2.20;;;;;;;21.72;70.38;102293.50;4911663;29;20102;-71
2023/08/21 09:01:50;;;;;;;6.93;1.52;;;;;;;21.76;67.73;102291.78;4910819;29;20145;-74
2023/08/21 09:04:15;;;;;;;3.67;1.50;;;;;;;21.82;65.60;102296.00;4945558;28;20043;-73
2023/08/21 09:06:41;;;;;;;4.13;1.42;;;;;;;21.90;66.79;102286.28;4914973;29;20035;-75
2023/08/21 09:09:10;;;;;;;4.28;1.30;;;;;;;21.94;66.89;102284.53;4931942;29;20051;-71
2023/08/21 09:11:36;;;;;;;4.50;1.02;;;;;;;21.98;65.58;102289.06;4909149;29;20031;-74
2023/08/21 09:14:01;;;;;;;4.18;1.58;;;;;;;21.88;64.90;102289.31;4903484;29;20039;-74
2023/08/21 09:16:27;;;;;;;4.95;1.55;;;;;;;21.92;66.99;102295.75;4909161;29;20087;-73
2023/08/21 09:18:56;;;;;;;5.15;1.17;;;;;;;21.97;69.25;102292.09;4921040;29;20040;-75
2023/08/21 09:21:24;;;;;;;4.00;1.95;;;;;;;22.01;65.05;102299.34;4902485;29;20130;-73
2023/08/21 09:23:57;;;;;;;5.18;1.20;;;;;;;22.05;64.42;102297.63;4901954;29;20047;-76
2023/08/21 09:26:23;;;;;;;5.82;2.05;;;;;;;22.14;66.14;102291.44;4929263;29;20045;-73
2023/08/21 09:28:51;;;;;;;3.90;1.25;;;;;;;22.15;65.81;102290.31;4927867;29;20067;-72
2023/08/21 09:31:26;;;;;;;6.93;2.10;;;;;;;22.15;64.86;102291.16;4897625;29;20043;-73
2023/08/21 09:33:56;;;;;;;3.65;1.10;;;;;;;22.15;62.89;102287.59;4911784;29;20126;-72
2023/08/21 09:36:24;;;;;;;6.43;2.15;;;;;;;22.15;62.97;102290.31;4929306;29;20158;-72
2023/08/21 09:38:52;;;;;;;5.97;1.27;;;;;;;22.17;64.12;102288.09;4927311;29;20045;-72
2023/08/21 09:41:21;;;;;;;5.28;1.92;;;;;;;22.25;64.40;102281.91;4918726;29;20139;-74
2023/08/21 09:43:49;;;;;;;5.70;1.55;;;;;;;22.29;63.33;102277.44;4905500;29;20040;-73
2023/08/21 09:46:18;;;;;;;4.07;1.77;;;;;;;22.32;62.91;102279.53;4903345;29;20100;-72
2023/08/21 09:48:46;;;;;;;4.57;1.17;;;;;;;22.43;63.70;102278.16;4922909;29;20511;-71
2023/08/21 09:51:12;;;;;;;6.25;2.13;;;;;;;22.52;62.28;102279.00;4927100;29;20117;-72
2023/08/21 09:53:40;;;;;;;6.18;2.08;;;;;;;22.56;61.79;102282.72;4911999;29;20708;-71
2023/08/21 09:56:06;;;;;;;7.10;2.08;;;;;;;22.60;61.77;102271.97;4929628;29;20043;-71
2023/08/21 09:58:32;;;;;;;7.00;1.85;;;;;;;22.68;61.86;102276.66;4943407;29;20050;-73
2023/08/21 10:00:59;;;;;;;4.30;1.67;;;;;;;22.74;61.96;102271.88;4930471;29;20043;-72
2023/08/21 10:03:26;;;;;;;4.05;1.75;;;;;;;22.74;62.52;102274.59;4888644;29;20043;-74
2023/08/21 10:05:56;;;;;;;7.72;1.30;;;;;;;22.84;60.93;102272.41;4939311;29;20035;-75
2023/08/21 10:08:25;;;;;;;3.92;1.55;;;;;;;22.86;57.86;102269.38;4906782;29;20046;-70
2023/08/21 10:10:51;;;;;;;4.47;1.10;;;;;;;22.95;60.51;102266.69;4926001;29;20035;-71
2023/08/21 10:13:18;;;;;;;4.13;1.73;;;;;;;22.93;58.12;102275.19;4909264;29;20039;-72
2023/08/21 10:15:44;;;;;;;5.07;1.10;;;;;;;22.98;61.49;102272.31;4929791;29;20035;-72
2023/08/21 10:18:25;;;;;;;4.75;1.30;;;;;;;23.04;60.32;102268.31;4928272;29;20035;-73
2023/08/21 10:20:52;;;;;;;5.40;1.30;;;;;;;23.13;59.75;102268.34;4903364;29;20061;-74
2023/08/21 10:23:30;;;;;;;4.63;1.40;;;;;;;23.19;61.44;102272.53;4928500;29;20049;-72
2023/08/21 10:26:00;;;;;;;4.18;1.40;;;;;;;23.21;60.53;102269.47;4926178;29;20070;-71
2023/08/21 10:28:47;;;;;;;5.38;1.77;;;;;;;23.20;58.55;102273.34;4910101;29;20039;-73
2023/08/21 10:31:39;;;;;;;3.20;1.30;;;;;;;23.26;58.12;102266.59;4941053;29;20109;-74
2023/08/21 10:34:09;;;;;;;3.58;1.10;;;;;;;23.36;62.44;102267.09;4924578;29;20066;-74
2023/08/21 10:36:44;;;;;;;2.60;1.02;;;;;;;23.41;61.28;102269.69;4908079;29;20042;-72
2023/08/21 10:39:26;;;;;;;3.90;1.50;;;;;;;23.43;57.79;102272.88;4904563;29;20035;-73
2023/08/21 10:42:00;;;;;;;3.38;1.10;;;;;;;23.53;61.97;102270.97;4918215;29;20046;-72
2023/08/21 10:44:41;;;;;;;6.55;1.80;;;;;;;23.56;60.31;102276.59;4917486;29;20067;-71
2023/08/21 10:47:19;;;;;;;3.38;1.20;;;;;;;23.67;63.55;102274.41;4917321;29;20057;-71
2023/08/21 10:49:56;;;;;;;4.97;1.13;;;;;;;23.73;58.50;102275.03;4904376;29;20039;-73
2023/08/21 10:52:27;;;;;;;;;;;;;;;23.70;57.05;102277.28;4901897;29;20035;-71
2023/08/21 10:54:58;;;;;;;4.78;1.35;;;;;;;23.81;57.77;102271.50;4910084;29;19918;-72
2023/08/21 10:57:26;;;;;;;4.72;1.52;;;;;;;23.90;58.83;102267.63;4903346;29;20039;-76
2023/08/21 11:00:03;;;;;;;3.78;0.98;;;;;;;23.94;57.23;102276.00;4912754;29;20050;-72
2023/08/21 11:02:31;;;;;;;4.05;1.73;;;;;;;24.01;57.02;102268.09;4897899;29;20761;-73
2023/08/21 11:04:58;;;;;;;5.05;1.05;;;;;;;24.03;56.07;102267.78;4920941;29;20155;-72
2023/08/21 11:07:25;;;;;;;4.28;2.05;;;;;;;24.00;57.81;102274.72;4917504;29;20035;-73
2023/08/21 11:09:52;;;;;;;3.80;1.20;;;;;;;23.99;57.13;102267.63;4936323;29;20050;-71
2023/08/21 11:12:21;;;;;;;4.68;1.92;;;;;;;23.99;52.63;102266.81;4941275;29;20035;-72
2023/08/21 11:14:48;;;;;;;4.65;1.50;;;;;;;24.13;57.42;102278.41;4910924;29;20039;-71
2023/08/21 11:17:14;;;;;;;3.40;1.10;;;;;;;24.19;58.66;102271.63;4915138;29;20666;-72
2023/08/21 11:19:41;;;;;;;3.17;1.27;;;;;;;24.22;57.05;102260.00;4915843;29;20043;-72
2023/08/21 11:22:08;;;;;;;3.78;1.10;;;;;;;24.37;57.90;102264.19;4909720;29;20047;-74
2023/08/21 11:24:37;;;;;;;4.80;1.83;;;;;;;24.34;55.62;102262.13;4926643;29;20030;-72
2023/08/21 11:27:10;;;;;;;3.47;1.63;;;;;;;24.21;54.14;102267.44;4933333;29;20080;-75